• Join FlightAware (Why Join?)
  • Login
  • US Flag 
01:10PM EST


 

Airport Tracker/Info


-or-


 

Live Flight TrackerFlight Track Log ✈ UAL4679 ✈ 07-Oct-2013 ✈ KEWR - KJAX

Flight Track Log - Related Links

Times and Time Zones

All times are in EDT time to prevent confusion due to time zone crossing. See the UAL4679 flight status page for this flight to view local times or setup timezone preferences in your user account.

Time Position Orientation Groundspeed Altitude Reporting Facility
EDT Latitude Longitude Course Direction KTS MPH feet Rate Location/Type
12:14PM 40.5892 -74.1925 224° Southwest 214 246 3,300  Level New York Center
12:15PM 40.5644 -74.2486 240° Southwest 224 258 5,600 1,320 Climbing New York Center
12:16PM 40.3649 -74.4499 194° South  Level Estimated
12:16PM 40.4978 -74.2561 185° South 206 237 6,000  Level New York Center
12:17PM 40.2829 -74.5197 229° Southwest  Level Estimated
12:17PM 40.4422 -74.2289 160° South 214 246 6,000  Level New York Center
12:18PM 40.2008 -74.5894 218° Southwest  Level Estimated
12:18PM 40.3789 -74.1875 154° Southeast 235 270 6,000  Level New York Center
12:19PM 40.1188 -74.6590 224° Southwest  Level Estimated
12:19PM 40.3647 -74.0942 101° East 251 289 7,700  Level New York Center
12:20PM 40.3039 -74.0394 146° Southeast 237 273 9,900 2,100 Climbing New York Center
12:21PM 40.2403 -74.0772 204° Southwest 203 234 12,000 1,800 Climbing New York Center
12:22PM 40.1828 -74.1236 212° Southwest 243 280 13,500 1,140 Climbing New York Center
12:24PM 40.0617 -74.2117 209° Southwest 301 346 14,900 1,200 Climbing Washington Center
12:25PM 39.9853 -74.2700 210° Southwest 321 369 16,700 1,740 Climbing Washington Center
12:26PM 39.9153 -74.3389 217° Southwest 321 369 18,400 1,500 Climbing Washington Center
12:27PM 39.8450 -74.4050 216° Southwest 321 369 19,700 1,140 Climbing Washington Center
12:28PM 39.7792 -74.4844 223° Southwest 321 369 20,800 1,020 Climbing Washington Center
12:29PM 39.7278 -74.5500 224° Southwest 326 375 21,800 1,140 Climbing Washington Center
12:30PM 39.6578 -74.6456 226° Southwest 331 381 23,100 1,320 Climbing Washington Center
12:31PM 39.5917 -74.7272 224° Southwest 331 381 24,400 1,200 Climbing Washington Center
12:32PM 39.5275 -74.8139 226° Southwest 331 381 25,500 1,260 Climbing Washington Center
12:33PM 39.4656 -74.8981 226° Southwest 326 375 27,000 1,320 Climbing Washington Center
12:34PM 39.4014 -74.9792 224° Southwest 326 375 28,300 1,260 Climbing Washington Center
12:35PM 39.3414 -75.0603 226° Southwest 326 375 29,600 1,080 Climbing Washington Center
12:36PM 39.2708 -75.1306 218° Southwest 326 375 30,500 960 Climbing Washington Center
12:37PM 39.1856 -75.1658 198° South 321 369 31,500 960 Climbing Washington Center
12:38PM 39.0961 -75.2011 197° South 326 375 32,500 960 Climbing Washington Center
12:39PM 39.0106 -75.2311 195° South 326 375 33,500 1,020 Climbing Washington Center
12:40PM 38.9253 -75.2714 200° South 326 375 34,600 960 Climbing Washington Center
12:41PM 38.8442 -75.3039 197° South 326 375 35,500 660 Climbing Washington Center
12:42PM 38.7586 -75.3361 196° South 326 375 36,000 240 Climbing Washington Center
12:43PM 38.6733 -75.3764 200° South 326 375 36,000  Level Washington Center
12:44PM 38.5794 -75.4139 197° South 332 382 36,000  Level Washington Center
12:45PM 38.4836 -75.4539 198° South 346 398 36,000  Level Washington Center
12:46PM 38.3817 -75.4964 198° South 368 423 36,000  Level Washington Center
12:47PM 38.2878 -75.5625 209° Southwest 382 440 36,000  Level Washington Center
12:48PM 38.2003 -75.6444 216° Southwest 388 447 36,000  Level Washington Center
12:49PM 38.1147 -75.7264 217° Southwest 393 452 36,000  Level Washington Center
12:50PM 38.0228 -75.8211 219° Southwest 394 453 36,000  Level Washington Center
12:51PM 37.9414 -75.8867 212° Southwest 389 448 36,000  Level Washington Center
12:52PM 37.8536 -75.9706 217° Southwest 389 448 36,000  Level Washington Center
12:53PM 37.7592 -76.0672 219° Southwest 394 453 36,000  Level Washington Center
12:54PM 37.6692 -76.1506 216° Southwest 394 453 36,000  Level Washington Center
12:55PM 37.5856 -76.2208 214° Southwest 401 461 36,000  Level Washington Center
12:56PM 37.4953 -76.3039 216° Southwest 406 467 36,000  Level Washington Center
12:57PM 37.4053 -76.3842 215° Southwest 406 467 36,000  Level Washington Center
12:58PM 37.3169 -76.4642 216° Southwest 406 467 36,000  Level Washington Center
12:59PM 37.2289 -76.5467 217° Southwest 406 467 36,000  Level Washington Center
01:00PM 37.1383 -76.6261 215° Southwest 406 467 36,000  Level Washington Center
01:01PM 37.0500 -76.7108 217° Southwest 406 467 36,000  Level Washington Center
01:02PM 36.9617 -76.7903 216° Southwest 406 467 36,000  Level Washington Center
01:03PM 36.8731 -76.8719 216° Southwest 406 467 36,000  Level Washington Center
01:04PM 36.7867 -76.9533 217° Southwest 401 461 36,000  Level Washington Center
01:05PM 36.7003 -77.0375 218° Southwest 401 461 36,000  Level Washington Center
01:06PM 36.6117 -77.1161 215° Southwest 401 461 36,000  Level Washington Center
01:07PM 36.5250 -77.1997 218° Southwest 396 456 36,000  Level Washington Center
01:08PM 36.4364 -77.2806 216° Southwest 391 450 36,000  Level Washington Center
01:09PM 36.3517 -77.3611 217° Southwest 391 450 36,000  Level Washington Center
01:10PM 36.2650 -77.4417 217° Southwest 391 450 36,000  Level Washington Center
01:11PM 36.1781 -77.5194 216° Southwest 391 450 36,000  Level Washington Center
01:12PM 36.0892 -77.6019 217° Southwest 391 450 36,000  Level Washington Center
01:13PM 36.0044 -77.6819 217° Southwest 391 450 36,000  Level Washington Center
01:14PM 35.9133 -77.7567 214° Southwest 391 450 36,000  Level Washington Center
01:15PM 35.8203 -77.8258 211° Southwest 391 450 36,000  Level Washington Center
01:16PM 35.7269 -77.9025 214° Southwest 397 457 36,000  Level Washington Center
01:17PM 35.6317 -77.9739 211° Southwest 403 464 36,000  Level Washington Center
01:18PM 35.5383 -78.0475 213° Southwest 403 464 36,000  Level Washington Center
01:19PM 35.4450 -78.1186 212° Southwest 403 464 36,000  Level Washington Center
01:20PM 35.3494 -78.1919 212° Southwest 403 464 36,000  Level Washington Center
01:21PM 35.2561 -78.2653 213° Southwest 403 464 36,000  Level Washington Center
01:22PM 35.1628 -78.3383 213° Southwest 403 464 36,000  Level Washington Center
01:23PM 35.0669 -78.4139 213° Southwest 403 464 36,000  Level Washington Center
01:24PM 34.9736 -78.4867 213° Southwest 408 470 36,000  Level Washington Center
01:25PM 34.8211 -78.6014 212° Southwest 403 464 36,000  Level Jacksonville Center
01:26PM 34.7294 -78.6717 212° Southwest 398 458 36,000  Level Jacksonville Center
01:27PM 34.6361 -78.7442 213° Southwest 398 458 36,000  Level Jacksonville Center
01:28PM 34.5403 -78.8144 211° Southwest 398 458 36,000  Level Jacksonville Center
01:29PM 34.4469 -78.8917 214° Southwest 398 458 36,000 -240 Level Jacksonville Center
01:30PM 34.3531 -78.9642 213° Southwest 404 465 35,600 -720 Descending Jacksonville Center
01:31PM 34.2572 -79.0361 212° Southwest 404 465 34,600 -840 Descending Jacksonville Center
01:32PM 34.1592 -79.1058 210° Southwest 404 465 34,000 -300 Descending Jacksonville Center
01:33PM 34.0656 -79.1775 212° Southwest 404 465 34,000  Level Jacksonville Center
01:34PM 33.9675 -79.2494 211° Southwest 404 465 34,000  Level Jacksonville Center
01:35PM 33.8672 -79.3233 211° Southwest 410 472 34,000  Level Jacksonville Center
01:36PM 33.7692 -79.3975 212° Southwest 421 484 34,000  Level Jacksonville Center
01:37PM 33.6772 -79.4658 212° Southwest 412 474 34,000 -480 Level Jacksonville Center
01:38PM 33.5769 -79.5372 211° Southwest 412 474 33,100 -960 Descending Jacksonville Center
01:39PM 33.4767 -79.6106 211° Southwest 412 474 32,100 -1,020 Descending Jacksonville Center
01:40PM 33.3783 -79.6839 212° Southwest 417 480 31,100 -1,080 Descending Jacksonville Center
01:41PM 33.2758 -79.7572 211° Southwest 423 487 30,000 -600 Descending Jacksonville Center
01:42PM 33.1775 -79.8300 212° Southwest 423 487 30,000  Level Jacksonville Center
01:43PM 33.0769 -79.9031 211° Southwest 423 487 30,000  Level Jacksonville Center
01:44PM 32.9783 -79.9731 211° Southwest 423 487 30,000  Level Jacksonville Center
01:45PM 32.8778 -80.0481 212° Southwest 423 487 30,000  Level Jacksonville Center
01:46PM 32.7711 -80.1306 213° Southwest 423 487 30,000  Level Jacksonville Center
01:47PM 32.6744 -80.2075 214° Southwest 423 487 30,000  Level Jacksonville Center
01:48PM 32.5781 -80.2842 214° Southwest 423 487 30,000  Level Jacksonville Center
01:49PM 32.4814 -80.3586 213° Southwest 423 487 30,000  Level Jacksonville Center
01:50PM 32.3869 -80.4350 214° Southwest 423 487 30,000  Level Jacksonville Center
01:51PM 32.2881 -80.5089 212° Southwest 417 480 30,000  Level Jacksonville Center
01:52PM 32.1936 -80.5825 213° Southwest 415 478 30,000  Level Jacksonville Center
01:53PM 32.0989 -80.6583 214° Southwest 410 472 30,000 -900 Level Jacksonville Center
01:54PM 32.0081 -80.7244 212° Southwest 421 484 28,300 -2,220 Descending Jacksonville Center
01:55PM 31.8947 -80.8128 214° Southwest 442 509 25,600 -2,160 Descending Jacksonville Center
01:56PM 31.8019 -80.8808 212° Southwest 442 509 24,000 -1,320 Descending Jacksonville Center
01:57PM 31.6947 -80.9636 213° Southwest 428 493 23,000 -1,680 Descending Jacksonville Center
01:58PM 31.5956 -81.0364 212° Southwest 428 493 20,700 -2,400 Descending Jacksonville Center
01:59PM 31.5128 -81.0989 213° Southwest 417 480 18,300 -2,700 Descending Jacksonville Center
02:00PM 31.4158 -81.1714 213° Southwest 389 448 15,400 -2,580 Descending Jacksonville Center
02:01PM 31.3311 -81.2386 214° Southwest 393 452 13,200 -1,920 Descending Jacksonville Center
02:02PM 31.2483 -81.3058 215° Southwest 387 445 11,600 -1,680 Descending Jacksonville Center
02:02PM 31.2419 -81.3011 148° Southeast 358 412 11,500 -1,140 Descending Jacksonville Center
02:03PM 31.1656 -81.3631 215° Southwest 375 432 10,500 -1,200 Descending Jacksonville Center
02:03PM 31.1469 -81.3756 210° Southwest 352 405 10,200 -540 Descending Jacksonville Center
02:04PM 31.0847 -81.4200 211° Southwest 350 403 10,000 -240 Descending Jacksonville Center
02:04PM 31.0639 -81.4228 187° South 349 402 10,000  Level Jacksonville Center
02:05PM 30.9911 -81.4506 198° South 345 397 10,000  Level Jacksonville Center
02:05PM 30.9683 -81.4558 191° South 353 406 10,000 -120 Level Jacksonville Center
02:06PM 30.8975 -81.4764 194° South 345 397 9,900  Descending Jacksonville Center
02:06PM 30.8725 -81.4792 185° South 304 350 10,000 -900 Climbing Jacksonville Center
02:07PM 30.8228 -81.5017 201° Southwest 317 365 9,000 -1,680 Descending Jacksonville Center
02:07PM 30.8042 -81.5164 214° Southwest 272 313 8,300 -2,040 Descending Jacksonville Center
02:08PM 30.7625 -81.5508 215° Southwest 289 333 7,000 -1,800 Descending Jacksonville Center
02:08PM 30.7442 -81.5681 219° Southwest 271 312 6,500 -1,500 Descending Jacksonville Center
02:09PM 30.7025 -81.6025 215° Southwest 274 315 5,500 -1,560 Descending Jacksonville Center
02:09PM 30.6922 -81.6147 226° Southwest 258 297 5,100 -1,500 Descending Jacksonville Center
02:10PM 30.6531 -81.6611 226° Southwest 267 307 4,000 -1,500 Descending Jacksonville Center
02:10PM 30.6447 -81.6708 225° Southwest 249 287 3,600 -1,500 Descending Jacksonville Center
02:11PM 30.6078 -81.7172 227° Southwest 256 295 2,500 -1,380 Descending Jacksonville Center
02:11PM 30.5931 -81.7294 216° Southwest 243 280 2,200 -600 Descending Jacksonville Center
02:12PM 30.5453 -81.7542 204° Southwest 199 229 1,900 -600 Descending Jacksonville Center
02:13PM 30.4972 -81.7475 173° South 143 165 1,000 -840 Descending Jacksonville Center